createdAt,value
2023-06-19T00:03:51.666Z,16.54
2023-06-19T00:08:54.389Z,16.43
2023-06-19T00:13:57.230Z,16.36
2023-06-19T00:19:00.218Z,16.22
2023-06-19T00:24:03.632Z,16.14
2023-06-19T00:29:06.511Z,16.09
2023-06-19T00:34:09.353Z,16.03
2023-06-19T00:39:12.391Z,16.01
2023-06-19T00:44:18.326Z,15.95
2023-06-19T00:49:21.230Z,15.90
2023-06-19T00:54:24.137Z,15.87
2023-06-19T00:59:27.456Z,15.86
2023-06-19T01:04:30.173Z,15.85
2023-06-19T01:09:47.907Z,15.73
2023-06-19T01:15:09.764Z,15.71
2023-06-19T01:20:13.297Z,15.74
2023-06-19T01:25:16.545Z,15.72
2023-06-19T01:30:19.336Z,15.77
2023-06-19T01:35:26.596Z,15.75
2023-06-19T01:40:33.073Z,15.75
2023-06-19T01:45:36.468Z,15.79
2023-06-19T01:50:39.233Z,15.86
2023-06-19T01:55:42.392Z,15.87
2023-06-19T02:00:45.022Z,15.90
2023-06-19T02:05:47.740Z,15.88
2023-06-19T02:10:50.525Z,15.88
2023-06-19T02:15:53.605Z,15.94
2023-06-19T02:21:00.504Z,16.08
2023-06-19T02:26:03.256Z,16.25
2023-06-19T02:31:06.079Z,16.53
2023-06-19T02:36:08.789Z,16.73
2023-06-19T02:41:11.393Z,16.92
2023-06-19T02:46:14.459Z,17.02
2023-06-19T02:51:17.527Z,17.22
2023-06-19T02:56:20.249Z,17.31
2023-06-19T03:01:23.051Z,17.43
2023-06-19T03:06:27.342Z,17.62
2023-06-19T03:11:30.464Z,17.80
2023-06-19T03:16:33.449Z,17.89
2023-06-19T03:21:36.850Z,18.14
2023-06-19T03:26:40.214Z,18.24
2023-06-19T03:31:43.979Z,18.56
2023-06-19T03:36:47.507Z,18.82
2023-06-19T03:41:50.270Z,19.09
2023-06-19T03:46:55.166Z,19.40
2023-06-19T03:51:57.984Z,19.61
2023-06-19T03:57:00.795Z,20.00
2023-06-19T04:02:03.620Z,20.26
2023-06-19T04:07:06.828Z,21.68
2023-06-19T04:12:10.163Z,22.51
2023-06-19T04:17:13.472Z,23.03
2023-06-19T04:22:16.185Z,23.99
2023-06-19T04:27:18.927Z,24.87
2023-06-19T04:32:21.799Z,25.28
2023-06-19T04:37:24.599Z,26.28
2023-06-19T04:42:27.897Z,26.73
2023-06-19T04:47:39.836Z,27.29
2023-06-19T04:52:52.669Z,27.86
2023-06-19T04:57:56.410Z,28.29
2023-06-19T05:03:01.961Z,28.09
2023-06-19T05:08:05.078Z,28.41
2023-06-19T05:13:07.853Z,29.00
2023-06-19T05:18:10.632Z,28.96
2023-06-19T05:23:13.731Z,29.23
2023-06-19T05:28:16.602Z,29.52
2023-06-19T05:33:20.524Z,29.27
2023-06-19T05:38:24.909Z,30.64
2023-06-19T05:43:28.063Z,30.81
2023-06-19T05:48:31.949Z,30.89
2023-06-19T05:53:34.690Z,31.16
2023-06-19T05:58:37.473Z,30.87
2023-06-19T06:03:40.577Z,32.00
2023-06-19T06:09:01.904Z,32.58
2023-06-19T06:14:04.741Z,31.47
2023-06-19T06:19:07.781Z,31.05
2023-06-19T06:24:10.619Z,31.91
2023-06-19T06:29:13.355Z,31.89
2023-06-19T06:34:16.216Z,32.13
2023-06-19T06:39:21.180Z,33.29
2023-06-19T06:44:23.935Z,33.27
2023-06-19T06:49:26.857Z,33.91
2023-06-19T06:54:29.466Z,33.53
2023-06-19T06:59:32.362Z,33.65
2023-06-19T07:04:35.210Z,33.79
2023-06-19T07:09:38.130Z,34.25
2023-06-19T07:14:40.970Z,34.63
2023-06-19T07:19:43.594Z,35.25
2023-06-19T07:24:46.525Z,35.53
2023-06-19T07:29:49.249Z,34.64
2023-06-19T07:34:52.427Z,35.03
2023-06-19T07:39:55.155Z,34.94
2023-06-19T07:44:59.262Z,34.86
2023-06-19T07:50:02.044Z,34.89
2023-06-19T07:55:07.740Z,34.66
2023-06-19T08:00:14.681Z,34.01
2023-06-19T08:05:17.830Z,33.16
2023-06-19T08:10:20.660Z,33.24
2023-06-19T08:15:23.520Z,33.05
2023-06-19T08:20:26.555Z,33.60
2023-06-19T08:25:29.786Z,33.37
2023-06-19T08:30:54.197Z,32.78
2023-06-19T08:36:07.449Z,33.34
2023-06-19T08:41:10.592Z,32.48
2023-06-19T08:46:33.112Z,32.29
2023-06-19T08:51:54.423Z,33.04
2023-06-19T08:56:57.564Z,33.05
2023-06-19T09:02:00.665Z,32.22
2023-06-19T09:07:10.101Z,31.92
2023-06-19T09:12:21.651Z,32.46
2023-06-19T09:17:33.845Z,33.25
2023-06-19T09:23:05.128Z,33.32
2023-06-19T09:28:17.817Z,32.97
2023-06-19T09:33:43.454Z,32.42
2023-06-19T09:38:49.266Z,32.55
2023-06-19T09:43:56.283Z,33.29
2023-06-19T09:49:05.973Z,32.36
2023-06-19T09:54:11.305Z,32.42
2023-06-19T09:59:16.537Z,32.50
2023-06-19T10:04:46.738Z,32.95
2023-06-19T10:10:32.046Z,32.04
2023-06-19T10:15:45.729Z,32.07
2023-06-19T10:20:49.389Z,33.10
2023-06-19T10:25:55.916Z,32.83
2023-06-19T10:31:24.215Z,31.59
2023-06-19T10:36:29.889Z,30.97
2023-06-19T10:41:33.564Z,30.92
2023-06-19T10:46:38.592Z,30.77
2023-06-19T10:51:45.193Z,29.74
2023-06-19T10:56:50.273Z,28.62
2023-06-19T11:02:31.577Z,28.20
2023-06-19T11:07:36.028Z,27.88
2023-06-19T11:12:38.949Z,27.52
2023-06-19T11:17:42.275Z,27.70
2023-06-19T11:22:45.472Z,27.49
2023-06-19T11:27:53.446Z,27.25
2023-06-19T11:32:57.282Z,26.63
2023-06-19T11:38:00.824Z,26.45
2023-06-19T11:43:03.931Z,26.48
2023-06-19T11:48:27.952Z,26.61
2023-06-19T11:53:31.010Z,26.42
2023-06-19T11:58:34.909Z,26.50
2023-06-19T12:03:41.299Z,26.67
2023-06-19T12:08:45.933Z,26.52
2023-06-19T12:13:48.877Z,26.48
2023-06-19T12:19:10.833Z,26.38
2023-06-19T12:24:15.559Z,26.52
2023-06-19T12:29:37.473Z,26.38
2023-06-19T12:34:40.847Z,26.39
2023-06-19T12:39:43.829Z,26.54
2023-06-19T12:44:47.454Z,26.09
2023-06-19T12:49:51.854Z,25.65
2023-06-19T12:54:55.356Z,25.83
2023-06-19T12:59:58.151Z,25.85
2023-06-19T13:05:01.039Z,25.83
2023-06-19T13:10:07.544Z,25.88
2023-06-19T13:15:10.986Z,25.96
2023-06-19T13:20:15.725Z,25.82
2023-06-19T13:25:36.940Z,25.59
2023-06-19T13:30:40.443Z,25.48
2023-06-19T13:41:11.238Z,25.51
2023-06-19T13:46:15.031Z,25.25
2023-06-19T13:51:19.209Z,25.17
2023-06-19T13:56:22.238Z,24.97
2023-06-19T14:01:29.490Z,24.94
2023-06-19T14:06:51.318Z,24.71
2023-06-19T14:11:55.099Z,24.55
2023-06-19T14:17:16.239Z,24.46
2023-06-19T14:22:37.245Z,24.36
2023-06-19T14:27:40.045Z,24.16
2023-06-19T14:32:42.980Z,24.07
2023-06-19T14:37:45.878Z,23.98
2023-06-19T14:42:49.012Z,23.98
2023-06-19T14:48:10.364Z,23.91
2023-06-19T14:53:13.350Z,23.78
2023-06-19T14:58:16.632Z,23.71
2023-06-19T15:03:19.614Z,23.68
2023-06-19T15:08:25.351Z,23.62
2023-06-19T15:13:47.453Z,23.53
2023-06-19T15:18:50.403Z,23.45
2023-06-19T15:24:15.281Z,23.38
2023-06-19T15:29:36.617Z,23.33
2023-06-19T15:34:39.319Z,23.24
2023-06-19T15:39:45.417Z,23.13
2023-06-19T15:44:48.664Z,23.10
2023-06-19T15:49:51.720Z,23.09
2023-06-19T15:54:54.526Z,22.94
2023-06-19T15:59:57.987Z,22.95
2023-06-19T16:05:00.943Z,23.02
2023-06-19T16:10:06.635Z,22.91
2023-06-19T16:15:10.673Z,22.76
2023-06-19T16:20:13.781Z,22.66
2023-06-19T16:25:19.110Z,22.52
2023-06-19T16:30:41.279Z,22.48
2023-06-19T16:35:45.518Z,22.29
2023-06-19T16:40:48.453Z,22.12
2023-06-19T16:46:09.718Z,21.94
2023-06-19T16:51:33.570Z,21.64
2023-06-19T16:56:37.016Z,21.43
2023-06-19T17:01:40.376Z,21.18
2023-06-19T17:06:43.304Z,20.99
2023-06-19T17:11:46.172Z,20.74
2023-06-19T17:16:48.920Z,20.56
2023-06-19T17:21:51.684Z,20.32
2023-06-19T17:26:58.658Z,20.26
2023-06-19T17:32:01.690Z,20.08
2023-06-19T17:37:05.148Z,20.03
2023-06-19T17:42:27.940Z,19.98
2023-06-19T17:47:30.839Z,19.84
2023-06-19T17:52:33.930Z,19.68
2023-06-19T17:57:37.877Z,19.54
2023-06-19T18:02:40.825Z,19.50
2023-06-19T18:07:43.627Z,19.70
2023-06-19T18:12:46.440Z,19.82
2023-06-19T18:17:49.435Z,19.81
2023-06-19T18:22:52.628Z,19.64
2023-06-19T18:28:15.701Z,19.60
2023-06-19T18:33:20.452Z,19.54
2023-06-19T18:38:41.589Z,19.37
2023-06-19T18:43:44.627Z,19.25
2023-06-19T18:48:47.698Z,19.24
2023-06-19T18:53:53.584Z,19.20
2023-06-19T18:58:56.813Z,19.17
2023-06-19T19:03:59.488Z,19.12
2023-06-19T19:09:03.324Z,19.09
2023-06-19T19:14:07.435Z,19.04
2023-06-19T19:19:10.393Z,18.98
2023-06-19T19:24:13.183Z,18.98
2023-06-19T19:29:16.042Z,18.99
2023-06-19T19:34:22.325Z,18.92
2023-06-19T19:39:28.791Z,18.94
2023-06-19T19:44:33.116Z,18.93
2023-06-19T19:49:36.854Z,18.87
2023-06-19T19:54:39.827Z,18.84
2023-06-19T19:59:42.838Z,18.70
2023-06-19T20:04:45.585Z,18.58
2023-06-19T20:09:48.268Z,18.54
2023-06-19T20:14:52.198Z,18.58
2023-06-19T20:19:55.198Z,18.54
2023-06-19T20:24:57.844Z,18.46
2023-06-19T20:30:00.678Z,18.45
2023-06-19T20:35:03.380Z,18.36
2023-06-19T20:40:10.263Z,18.24
2023-06-19T20:45:15.459Z,18.24
2023-06-19T20:50:18.173Z,18.12
2023-06-19T20:55:20.900Z,17.89
2023-06-19T21:00:25.109Z,17.75
2023-06-19T21:05:28.450Z,17.34
2023-06-19T21:10:31.195Z,17.14
2023-06-19T21:15:33.935Z,16.94
2023-06-19T21:20:36.639Z,16.84
2023-06-19T21:25:39.798Z,16.65
2023-06-19T21:30:42.598Z,16.64
2023-06-19T21:35:45.359Z,16.58
2023-06-19T21:40:48.061Z,16.43
2023-06-19T21:45:51.007Z,16.31
2023-06-19T21:50:54.517Z,16.20
2023-06-19T21:55:59.696Z,16.14
2023-06-19T22:01:02.505Z,16.14
2023-06-19T22:06:05.049Z,16.14
2023-06-19T22:11:08.013Z,16.10
2023-06-19T22:16:10.893Z,16.02
2023-06-19T22:21:14.674Z,16.01
2023-06-19T22:26:20.817Z,15.91
2023-06-19T22:31:26.421Z,15.90
2023-06-19T22:36:30.193Z,15.88
2023-06-19T22:41:32.864Z,15.85
2023-06-19T22:46:35.497Z,15.84
2023-06-19T22:51:38.431Z,15.79
2023-06-19T22:56:41.386Z,15.85
2023-06-19T23:01:44.155Z,15.84
2023-06-19T23:06:49.086Z,15.89
2023-06-19T23:11:54.242Z,15.86
2023-06-19T23:16:57.609Z,15.86
2023-06-19T23:22:00.325Z,15.90
2023-06-19T23:27:03.119Z,15.92
2023-06-19T23:32:06.381Z,15.94
2023-06-19T23:37:08.949Z,15.92
2023-06-19T23:42:13.174Z,15.91
2023-06-19T23:47:15.954Z,15.93
2023-06-19T23:52:29.632Z,15.94
2023-06-19T23:57:37.111Z,15.89
